Time;durP1;ratioP1;P1;durP2;ratioP2;P2;SDS_P1;SDS_P2;PMS_P1;PMS_P2;Temp;Humidity;BMP_temperature;BMP_pressure;BME280_temperature;BME280_humidity;BME280_pressure;Samples;Min_cycle;Max_cycle;Signal;HPM_P1;HPM_P2
2023/03/08 00:02:05;;;;;;;;;;;;;;;4.00;100.00;99043.66;5095179;28;847;-55
2023/03/08 00:04:32;;;;;;;;;;;;;;;3.84;100.00;99046.63;5094979;28;1940;-55
2023/03/08 00:06:59;;;;;;;;;;;;;;;3.81;100.00;99042.69;5095016;28;835;-55
2023/03/08 00:09:25;;;;;;;;;;;;;;;3.83;100.00;99042.31;5094618;28;1189;-55
2023/03/08 00:11:52;;;;;;;;;;;;;;;3.75;100.00;99044.19;5094783;28;886;-55
2023/03/08 00:14:19;;;;;;;;;;;;;;;3.78;100.00;99043.47;5094564;28;1054;-55
2023/03/08 00:16:46;;;;;;;;;;;;;;;3.92;100.00;99047.50;5094601;28;886;-55
2023/03/08 00:19:13;;;;;;;;;;;;;;;4.09;100.00;99042.16;5094468;28;823;-55
2023/03/08 00:21:40;;;;;;;;;;;;;;;4.06;100.00;99042.16;5094482;28;938;-55
2023/03/08 00:24:06;;;;;;;;;;;;;;;4.03;100.00;99035.50;5094249;28;1910;-55
2023/03/08 00:26:32;;;;;;;;;;;;;;;3.96;100.00;99035.41;5094344;28;824;-55
2023/03/08 00:28:58;;;;;;;;;;;;;;;4.00;100.00;99032.72;5094604;28;820;-56
2023/03/08 00:31:25;;;;;;;;;;;;;;;4.18;100.00;99027.41;5094291;28;841;-55
2023/03/08 00:33:52;;;;;;;;;;;;;;;4.36;100.00;99020.13;5094228;28;855;-55
2023/03/08 00:36:19;;;;;;;;;;;;;;;4.61;100.00;99017.56;5094114;28;879;-55
2023/03/08 00:38:47;;;;;;;;;;;;;;;4.75;100.00;99022.34;5094362;28;812;-55
2023/03/08 00:41:13;;;;;;;;;;;;;;;4.68;100.00;99016.81;5094059;28;811;-55
2023/03/08 00:43:41;;;;;;;;;;;;;;;4.49;100.00;99021.38;5093992;28;1913;-55
2023/03/08 00:46:07;;;;;;;;;;;;;;;4.33;100.00;99015.41;5094042;28;844;-55
2023/03/08 00:48:34;;;;;;;;;;;;;;;4.16;100.00;99019.59;5093971;28;843;-55
2023/03/08 00:51:01;;;;;;;;;;;;;;;4.08;100.00;99020.69;5075650;28;832;-55
2023/03/08 00:53:27;;;;;;;;;;;;;;;4.17;100.00;99023.09;5075591;28;887;-55
2023/03/08 00:55:55;;;;;;;;;;;;;;;4.13;100.00;99025.03;5093737;28;815;-55
2023/03/08 00:58:23;;;;;;;;;;;;;;;4.00;100.00;99017.09;5093604;28;887;-55
2023/03/08 01:00:50;;;;;;;;;;;;;;;3.98;100.00;99022.16;5093714;28;917;-55
2023/03/08 01:03:17;;;;;;;;;;;;;;;4.00;100.00;99017.09;5093608;28;1889;-55
2023/03/08 01:05:45;;;;;;;;;;;;;;;3.92;100.00;99015.47;5093659;28;882;-55
2023/03/08 01:08:11;;;;;;;;;;;;;;;3.89;100.00;99013.50;5093726;28;932;-55
2023/03/08 01:10:38;;;;;;;;;;;;;;;3.80;100.00;99011.06;5093374;28;1272;-55
2023/03/08 01:13:05;;;;;;;;;;;;;;;3.91;100.00;99010.38;5093506;28;870;-55
2023/03/08 01:15:36;;;;;;;;;;;;;;;3.85;100.00;99005.25;5093401;28;867;-56
2023/03/08 01:18:03;;;;;;;;;;;;;;;3.93;100.00;99010.78;5094032;28;771;-55
2023/03/08 01:20:30;;;;;;;;;;;;;;;4.07;100.00;99008.94;5093618;28;870;-55
2023/03/08 01:22:56;;;;;;;;;;;;;;;4.21;100.00;99005.56;5093725;28;1914;-55
2023/03/08 01:25:23;;;;;;;;;;;;;;;4.37;100.00;99009.97;5093225;28;839;-56
2023/03/08 01:27:50;;;;;;;;;;;;;;;4.18;100.00;98998.13;5093222;28;811;-55
2023/03/08 01:30:17;;;;;;;;;;;;;;;3.98;100.00;99002.25;5093234;28;803;-55
2023/03/08 01:32:44;;;;;;;;;;;;;;;3.85;100.00;99004.47;5093072;28;867;-55
2023/03/08 01:35:11;;;;;;;;;;;;;;;3.73;100.00;99002.00;5093021;28;831;-55
2023/03/08 01:37:37;;;;;;;;;;;;;;;3.72;100.00;98997.72;5092969;28;879;-55
2023/03/08 01:40:05;;;;;;;;;;;;;;;3.62;100.00;98999.94;5092934;28;1027;-55
2023/03/08 01:42:32;;;;;;;;;;;;;;;3.73;100.00;99000.06;5092833;28;905;-55
2023/03/08 01:45:00;;;;;;;;;;;;;;;3.96;100.00;98990.91;5092979;28;1906;-55
2023/03/08 01:47:27;;;;;;;;;;;;;;;4.04;100.00;99001.50;5092822;28;902;-55
2023/03/08 01:49:56;;;;;;;;;;;;;;;4.29;100.00;98992.72;5092914;28;1245;-55
2023/03/08 01:52:29;;;;;;;;;;;;;;;4.40;100.00;99001.00;5092793;28;820;-55
2023/03/08 01:54:57;;;;;;;;;;;;;;;4.51;100.00;99004.59;5092648;28;808;-55
2023/03/08 01:57:29;;;;;;;;;;;;;;;4.60;100.00;99002.31;5092631;28;815;-55
2023/03/08 01:59:57;;;;;;;;;;;;;;;4.55;100.00;99002.69;5092621;28;874;-55
2023/03/08 02:02:26;;;;;;;;;;;;;;;4.57;100.00;99010.50;5092570;28;823;-55
2023/03/08 02:04:53;;;;;;;;;;;;;;;4.50;100.00;99005.75;5092359;28;1936;-55
2023/03/08 02:07:19;;;;;;;;;;;;;;;4.50;100.00;99009.28;5092470;28;883;-55
2023/03/08 02:09:47;;;;;;;;;;;;;;;4.56;100.00;99006.97;5091706;28;1384;-55
2023/03/08 02:12:14;;;;;;;;;;;;;;;4.54;100.00;99014.00;5092355;28;843;-55
2023/03/08 02:14:41;;;;;;;;;;;;;;;4.53;100.00;99007.75;5092448;28;871;-55
2023/03/08 02:17:08;;;;;;;;;;;;;;;4.51;100.00;99010.06;5092240;28;843;-55
2023/03/08 02:19:41;;;;;;;;;;;;;;;4.39;100.00;99004.91;5092263;28;827;-55
2023/03/08 02:22:08;;;;;;;;;;;;;;;4.23;100.00;99003.22;5092374;28;850;-55
2023/03/08 02:24:35;;;;;;;;;;;;;;;4.09;100.00;99008.56;5092223;28;1975;-56
2023/03/08 02:27:05;;;;;;;;;;;;;;;3.93;100.00;99005.34;5092286;28;843;-55
2023/03/08 02:29:31;;;;;;;;;;;;;;;3.91;100.00;99002.19;5073846;28;1317;-55
2023/03/08 02:31:58;;;;;;;;;;;;;;;4.14;100.00;99013.72;5092093;28;863;-55
2023/03/08 02:34:24;;;;;;;;;;;;;;;4.43;100.00;99005.72;5092013;28;839;-55
2023/03/08 02:36:50;;;;;;;;;;;;;;;4.64;100.00;99007.81;5091919;28;937;-55
2023/03/08 02:39:17;;;;;;;;;;;;;;;4.80;100.00;99007.50;5092044;28;832;-56
2023/03/08 02:41:44;;;;;;;;;;;;;;;4.60;100.00;98965.94;5091997;28;808;-55
2023/03/08 02:44:10;;;;;;;;;;;;;;;4.94;100.00;99007.59;5092324;28;1890;-55
2023/03/08 02:46:37;;;;;;;;;;;;;;;4.93;100.00;99011.50;5092007;28;824;-55
2023/03/08 02:49:03;;;;;;;;;;;;;;;4.68;100.00;99009.41;5092522;28;788;-55
2023/03/08 02:51:30;;;;;;;;;;;;;;;4.53;100.00;99020.66;5091714;28;839;-56
2023/03/08 02:53:56;;;;;;;;;;;;;;;4.46;100.00;99015.91;5091684;28;859;-56
2023/03/08 02:56:23;;;;;;;;;;;;;;;4.65;100.00;99017.56;5073568;28;1287;-55
2023/03/08 02:58:49;;;;;;;;;;;;;;;4.85;100.00;99026.31;5091694;28;850;-55
2023/03/08 03:01:16;;;;;;;;;;;;;;;4.80;100.00;99026.66;5091565;28;863;-55
2023/03/08 03:03:42;;;;;;;;;;;;;;;4.65;100.00;99026.59;5091531;28;1890;-55
2023/03/08 03:06:15;;;;;;;;;;;;;;;4.63;100.00;99017.16;5091731;28;815;-55
2023/03/08 03:08:42;;;;;;;;;;;;;;;4.71;100.00;99024.25;5091655;28;934;-55
2023/03/08 03:11:15;;;;;;;;;;;;;;;4.69;100.00;99021.13;5091382;28;1330;-55
2023/03/08 03:13:42;;;;;;;;;;;;;;;4.72;100.00;99022.34;5091472;28;818;-56
2023/03/08 03:16:11;;;;;;;;;;;;;;;4.63;100.00;99026.19;5091431;28;910;-55
2023/03/08 03:18:37;;;;;;;;;;;;;;;4.53;100.00;99024.16;5091463;28;844;-55
2023/03/08 03:21:05;;;;;;;;;;;;;;;4.54;100.00;99017.50;5092153;28;847;-56
2023/03/08 03:23:32;;;;;;;;;;;;;;;4.48;100.00;99024.50;5095810;28;1913;-55
2023/03/08 03:26:05;;;;;;;;;;;;;;;4.38;100.00;99020.53;5095540;28;875;-55
2023/03/08 03:28:32;;;;;;;;;;;;;;;4.27;100.00;99033.34;5095465;28;843;-55
2023/03/08 03:30:58;;;;;;;;;;;;;;;4.16;100.00;99027.81;5095499;28;870;-55
2023/03/08 03:33:24;;;;;;;;;;;;;;;4.15;100.00;99033.63;5095493;28;886;-55
2023/03/08 03:35:51;;;;;;;;;;;;;;;4.15;100.00;99039.09;5095389;28;887;-55
2023/03/08 03:38:18;;;;;;;;;;;;;;;4.22;100.00;99034.47;5095323;28;835;-55
2023/03/08 03:40:45;;;;;;;;;;;;;;;4.24;100.00;99034.09;5095257;28;815;-55
2023/03/08 03:43:11;;;;;;;;;;;;;;;4.22;100.00;99025.47;5095155;28;1890;-56
2023/03/08 03:45:38;;;;;;;;;;;;;;;4.31;100.00;99031.44;5095176;28;856;-55
2023/03/08 03:48:05;;;;;;;;;;;;;;;4.34;100.00;99025.19;5095086;28;898;-56
2023/03/08 03:50:31;;;;;;;;;;;;;;;4.35;100.00;99029.50;5095260;28;812;-55
2023/03/08 03:52:58;;;;;;;;;;;;;;;4.37;100.00;99023.66;5095081;28;831;-55
2023/03/08 03:55:25;;;;;;;;;;;;;;;4.41;100.00;99027.19;5094916;28;879;-55
2023/03/08 03:57:52;;;;;;;;;;;;;;;4.49;100.00;99024.13;5094980;28;820;-55
2023/03/08 04:00:18;;;;;;;;;;;;;;;4.47;100.00;99023.72;5095049;28;875;-56
2023/03/08 04:02:44;;;;;;;;;;;;;;;4.40;100.00;99025.63;5076643;28;1306;-55
2023/03/08 04:05:11;;;;;;;;;;;;;;;4.30;100.00;99038.06;5094683;28;1967;-55
2023/03/08 04:07:38;;;;;;;;;;;;;;;4.17;100.00;99034.03;5094679;28;1070;-56
2023/03/08 04:10:05;;;;;;;;;;;;;;;4.05;100.00;99026.91;5094470;28;1245;-55
2023/03/08 04:12:32;;;;;;;;;;;;;;;3.94;100.00;99036.97;5094661;28;828;-55
2023/03/08 04:14:58;;;;;;;;;;;;;;;3.81;100.00;99034.50;5094634;28;840;-55
2023/03/08 04:17:25;;;;;;;;;;;;;;;3.67;100.00;99031.63;5094618;28;894;-55
2023/03/08 04:19:51;;;;;;;;;;;;;;;3.48;100.00;99040.81;5094403;28;828;-55
2023/03/08 04:22:17;;;;;;;;;;;;;;;3.22;100.00;99039.72;5094561;28;803;-55
2023/03/08 04:24:44;;;;;;;;;;;;;;;3.05;100.00;99049.25;5094337;28;1966;-55
2023/03/08 04:27:11;;;;;;;;;;;;;;;2.98;100.00;99043.69;5094391;28;934;-55
2023/03/08 04:29:37;;;;;;;;;;;;;;;2.95;100.00;99049.91;5094290;28;851;-55
2023/03/08 04:32:04;;;;;;;;;;;;;;;2.92;100.00;99047.09;5094007;28;831;-55
2023/03/08 04:34:30;;;;;;;;;;;;;;;2.95;100.00;99049.91;5094270;28;922;-55
2023/03/08 04:36:56;;;;;;;;;;;;;;;2.95;100.00;99044.44;5094215;28;872;-55
2023/03/08 04:39:23;;;;;;;;;;;;;;;2.95;100.00;99043.66;5094139;28;863;-55
2023/03/08 04:41:49;;;;;;;;;;;;;;;2.93;100.00;99038.56;5094151;28;859;-55
2023/03/08 04:44:16;;;;;;;;;;;;;;;2.93;100.00;99045.97;5094079;28;1952;-55
2023/03/08 04:46:42;;;;;;;;;;;;;;;2.92;100.00;99050.63;5094102;28;890;-55
2023/03/08 04:49:09;;;;;;;;;;;;;;;3.03;100.00;99050.75;5094046;28;870;-55
2023/03/08 04:51:36;;;;;;;;;;;;;;;3.12;100.00;99045.81;5093898;28;823;-56
2023/03/08 04:54:03;;;;;;;;;;;;;;;3.18;100.00;99052.53;5093933;28;879;-55
2023/03/08 04:56:30;;;;;;;;;;;;;;;3.20;100.00;99047.50;5093909;28;823;-55
2023/03/08 04:58:56;;;;;;;;;;;;;;;3.30;100.00;99054.22;5093767;28;875;-55
2023/03/08 05:01:23;;;;;;;;;;;;;;;3.45;100.00;99053.25;5093938;28;886;-55
2023/03/08 05:03:51;;;;;;;;;;;;;;;3.55;100.00;99051.03;5093982;28;1949;-55
2023/03/08 05:06:26;;;;;;;;;;;;;;;3.64;100.00;99059.69;5093677;28;867;-55
2023/03/08 05:08:53;;;;;;;;;;;;;;;3.73;100.00;99062.13;5075599;28;1415;-55
2023/03/08 05:11:23;;;;;;;;;;;;;;;3.80;100.00;99064.97;5093344;28;1460;-55
2023/03/08 05:13:59;;;;;;;;;;;;;;;4.03;100.00;99068.31;5093510;28;918;-55
2023/03/08 05:16:26;;;;;;;;;;;;;;;4.37;100.00;99075.63;5093614;28;816;-55
2023/03/08 05:18:53;;;;;;;;;;;;;;;4.67;100.00;99075.47;5093506;28;840;-55
2023/03/08 05:21:21;;;;;;;;;;;;;;;4.95;100.00;99072.16;5093634;28;819;-55
2023/03/08 05:23:47;;;;;;;;;;;;;;;5.21;100.00;99067.59;5093309;28;1962;-55
2023/03/08 05:26:14;;;;;;;;;;;;;;;5.39;100.00;99065.69;5093385;28;866;-55
2023/03/08 05:28:41;;;;;;;;;;;;;;;5.62;100.00;99067.34;5093258;28;887;-56
2023/03/08 05:31:10;;;;;;;;;;;;;;;5.80;100.00;99067.41;5093301;28;812;-55
2023/03/08 05:33:38;;;;;;;;;;;;;;;5.98;100.00;99073.75;5093117;28;848;-56
2023/03/08 05:36:05;;;;;;;;;;;;;;;6.20;100.00;99073.78;5093061;28;902;-56
2023/03/08 05:38:31;;;;;;;;;;;;;;;6.30;100.00;99073.78;5093079;28;865;-56
2023/03/08 05:41:07;;;;;;;;;;;;;;;6.26;100.00;99073.00;5092967;28;843;-56
2023/03/08 05:43:34;;;;;;;;;;;;;;;6.12;100.00;99075.72;5091928;28;1955;-56
2023/03/08 05:46:02;;;;;;;;;;;;;;;5.89;100.00;99076.06;5092843;28;828;-56
2023/03/08 05:48:29;;;;;;;;;;;;;;;5.79;100.00;99085.81;5092721;28;1017;-56
2023/03/08 05:50:55;;;;;;;;;;;;;;;5.82;100.00;99081.50;5092760;28;863;-56
2023/03/08 05:53:22;;;;;;;;;;;;;;;6.03;100.00;99087.06;5092740;28;859;-56
2023/03/08 05:55:50;;;;;;;;;;;;;;;6.15;100.00;99085.94;5092655;28;898;-55
2023/03/08 05:58:17;;;;;;;;;;;;;;;6.07;100.00;99090.59;5092661;28;831;-56
2023/03/08 06:00:43;;;;;;;;;;;;;;;6.05;100.00;99097.66;5092504;28;902;-56
2023/03/08 06:03:10;;;;;;;;;;;;;;;6.38;100.00;99103.97;5092454;28;1952;-55
2023/03/08 06:05:37;;;;;;;;;;;;;;;6.54;100.00;99109.88;5092807;28;811;-55
2023/03/08 06:08:04;;;;;;;;;;;;;;;6.65;100.00;99109.88;5092459;28;1063;-55
2023/03/08 06:10:31;;;;;;;;;;;;;;;6.75;100.00;99117.31;5092244;28;1253;-55
2023/03/08 06:12:57;;;;;;;;;;;;;;;7.06;100.00;99117.69;5092374;28;913;-55
2023/03/08 06:15:24;;;;;;;;;;;;;;;7.61;100.00;99121.84;5092277;28;839;-55
2023/03/08 06:17:53;;;;;;;;;;;;;;;7.81;100.00;99128.47;5092209;28;812;-55
2023/03/08 06:20:20;;;;;;;;;;;;;;;8.14;100.00;99123.56;5092187;28;906;-55
2023/03/08 06:22:46;;;;;;;;;;;;;;;8.23;100.00;99126.63;5092223;28;807;-55
2023/03/08 06:25:13;;;;;;;;;;;;;;;8.18;100.00;99138.09;5092149;28;1910;-55
2023/03/08 06:27:40;;;;;;;;;;;;;;;8.13;100.00;99133.78;5092269;28;918;-55
2023/03/08 06:30:07;;;;;;;;;;;;;;;8.68;100.00;99140.50;5092034;28;867;-55
2023/03/08 06:32:34;;;;;;;;;;;;;;;9.29;100.00;99139.97;5092076;28;816;-55
2023/03/08 06:35:01;;;;;;;;;;;;;;;9.72;100.00;99144.22;5091947;28;888;-55
2023/03/08 06:40:30;;;;;;;;;;;;;;;9.84;100.00;99151.19;5091985;28;1360;-55
2023/03/08 06:42:57;;;;;;;;;;;;;;;9.93;100.00;99143.97;5091816;28;839;-54
2023/03/08 06:45:24;;;;;;;;;;;;;;;9.90;100.00;99147.56;5073697;28;1940;-55
2023/03/08 06:50:53;;;;;;;;;;;;;;;9.82;100.00;99151.59;5091731;28;1267;-55
2023/03/08 06:53:28;;;;;;;;;;;;;;;10.13;100.00;99157.13;5091737;28;867;-55
2023/03/08 06:55:56;;;;;;;;;;;;;;;10.63;100.00;99153.69;5091422;28;1091;-55
2023/03/08 06:58:23;;;;;;;;;;;;;;;10.69;100.00;99157.53;5091678;28;851;-55
2023/03/08 07:00:53;;;;;;;;;;;;;;;10.91;100.00;99157.97;5091652;28;799;-54
2023/03/08 07:03:20;;;;;;;;;;;;;;;11.04;100.00;99160.91;5091534;28;1890;-55
2023/03/08 07:05:47;;;;;;;;;;;;;;;10.98;100.00;99157.06;5091562;28;815;-54
2023/03/08 07:08:13;;;;;;;;;;;;;;;11.50;100.00;99166.81;5091638;28;944;-55
2023/03/08 07:10:41;;;;;;;;;;;;;;;12.35;100.00;99164.28;5091304;28;1427;-54
2023/03/08 07:13:07;;;;;;;;;;;;;;;12.88;100.00;99165.03;5091556;28;946;-55
2023/03/08 07:15:37;;;;;;;;;;;;;;;13.53;100.00;99173.72;5091532;28;876;-55
2023/03/08 07:18:10;;;;;;;;;;;;;;;14.25;97.24;99167.72;5091318;28;879;-55
2023/03/08 07:20:54;;;;;;;;;;;;;;;14.72;92.25;99169.06;5091489;28;820;-55
2023/03/08 07:23:21;;;;;;;;;;;;;;;14.58;94.62;99172.31;5091291;28;1902;-55
2023/03/08 07:25:47;;;;;;;;;;;;;;;14.14;93.79;99174.81;5091437;28;812;-56
2023/03/08 07:28:28;;;;;;;;;;;;;;;14.04;96.37;99171.91;5091381;28;827;-55
2023/03/08 07:30:54;;;;;;;;;;;;;;;14.16;95.85;99173.13;5091477;28;859;-55
2023/03/08 07:33:21;;;;;;;;;;;;;;;14.15;95.55;99173.59;5073404;28;816;-55
2023/03/08 07:35:48;;;;;;;;;;;;;;;14.27;92.99;99178.38;5091602;28;886;-56
2023/03/08 07:38:15;;;;;;;;;;;;;;;14.16;93.47;99175.91;5091260;28;839;-56
2023/03/08 07:40:41;;;;;;;;;;;;;;;14.28;93.23;99177.16;5091248;28;855;-55
2023/03/08 07:43:07;;;;;;;;;;;;;;;14.45;92.79;99180.63;5091302;28;831;-55
2023/03/08 07:45:35;;;;;;;;;;;;;;;14.72;90.16;99174.63;5091132;28;1882;-55
2023/03/08 07:48:01;;;;;;;;;;;;;;;14.75;90.77;99173.75;5091051;28;951;-56
2023/03/08 07:50:28;;;;;;;;;;;;;;;14.71;91.54;99173.09;5091136;28;871;-55
2023/03/08 07:52:59;;;;;;;;;;;;;;;14.92;90.12;99177.19;5091284;28;808;-56
2023/03/08 07:58:29;;;;;;;;;;;;;;;15.35;88.30;99174.97;5091272;28;674;-54
2023/03/08 08:00:56;;;;;;;;;;;;;;;15.42;86.46;99172.72;5091225;28;844;-55
2023/03/08 08:03:23;;;;;;;;;;;;;;;15.58;85.15;99177.34;5091148;28;1890;-54
2023/03/08 08:05:49;;;;;;;;;;;;;;;15.92;84.78;99175.78;5091340;28;809;-55
2023/03/08 08:08:16;;;;;;;;;;;;;;;16.12;84.04;99186.56;5093885;28;970;-55
2023/03/08 08:10:43;;;;;;;;;;;;;;;16.30;80.87;99192.25;5094726;28;1415;-56
2023/03/08 08:13:09;;;;;;;;;;;;;;;16.29;79.26;99187.13;5095254;28;840;-55
2023/03/08 08:15:36;;;;;;;;;;;;;;;16.28;82.91;99188.34;5095049;28;898;-55
2023/03/08 08:18:03;;;;;;;;;;;;;;;16.19;79.42;99191.88;5095189;28;772;-55
2023/03/08 08:20:29;;;;;;;;;;;;;;;15.73;76.45;99186.00;5094824;28;863;-55
2023/03/08 08:22:56;;;;;;;;;;;;;;;15.79;79.43;99191.75;5094542;28;835;-55
2023/03/08 08:25:22;;;;;;;;;;;;;;;15.82;78.81;99183.28;5076128;28;1977;-55
2023/03/08 08:27:54;;;;;;;;;;;;;;;15.71;74.63;99188.44;5094424;28;817;-55
2023/03/08 08:30:28;;;;;;;;;;;;;;;15.51;76.34;99186.72;5094418;28;859;-55
2023/03/08 08:32:55;;;;;;;;;;;;;;;15.64;73.96;99175.53;5094346;28;827;-55
2023/03/08 08:35:21;;;;;;;;;;;;;;;15.46;76.47;99178.16;5094322;28;851;-55
2023/03/08 08:37:48;;;;;;;;;;;;;;;15.62;73.53;99182.78;5094148;28;883;-55
2023/03/08 08:40:15;;;;;;;;;;;;;;;15.48;75.86;99176.47;5094363;28;823;-55
2023/03/08 08:42:41;;;;;;;;;;;;;;;15.41;80.51;99173.19;5094105;28;812;-55
2023/03/08 08:45:08;;;;;;;;;;;;;;;15.54;73.85;99168.34;5094360;28;1947;-55
2023/03/08 08:47:34;;;;;;;;;;;;;;;15.33;74.70;99167.06;5093963;28;890;-55
2023/03/08 08:50:00;;;;;;;;;;;;;;;15.10;76.08;99166.22;5094110;28;866;-55
2023/03/08 08:52:27;;;;;;;;;;;;;;;15.30;75.49;99168.75;5093999;28;816;-55
2023/03/08 08:54:53;;;;;;;;;;;;;;;15.38;74.66;99162.94;5093942;28;827;-55
2023/03/08 08:57:20;;;;;;;;;;;;;;;15.16;71.35;99160.13;5094154;28;898;-55
2023/03/08 08:59:47;;;;;;;;;;;;;;;15.15;71.07;99167.69;5075665;28;1326;-55
2023/03/08 09:02:13;;;;;;;;;;;;;;;15.61;71.21;99162.50;5093814;28;847;-55
2023/03/08 09:04:39;;;;;;;;;;;;;;;15.69;70.96;99161.03;5093649;28;1918;-56
2023/03/08 09:07:06;;;;;;;;;;;;;;;15.76;69.35;99160.00;5093675;28;879;-55
2023/03/08 09:09:33;;;;;;;;;;;;;;;15.80;68.31;99160.66;5093629;28;1221;-55
2023/03/08 09:11:59;;;;;;;;;;;;;;;15.56;70.84;99151.94;5093654;28;871;-56
2023/03/08 09:14:26;;;;;;;;;;;;;;;15.66;69.25;99150.78;5075499;28;1521;-55
2023/03/08 09:16:52;;;;;;;;;;;;;;;16.12;68.60;99161.47;5093611;28;887;-56
2023/03/08 09:19:19;;;;;;;;;;;;;;;16.32;68.57;99147.16;5093518;28;824;-56
2023/03/08 09:21:46;;;;;;;;;;;;;;;16.28;67.39;99155.69;5093690;28;828;-56
2023/03/08 09:24:12;;;;;;;;;;;;;;;16.18;69.31;99161.69;5093424;28;1979;-56
2023/03/08 09:26:38;;;;;;;;;;;;;;;16.40;66.30;99153.25;5093512;28;831;-56
2023/03/08 09:29:06;;;;;;;;;;;;;;;16.39;65.31;99144.13;5093244;28;816;-56
2023/03/08 09:31:33;;;;;;;;;;;;;;;16.45;66.69;99156.22;5093454;28;961;-56
2023/03/08 09:33:59;;;;;;;;;;;;;;;16.53;63.28;99151.91;5093132;28;832;-56
2023/03/08 09:36:29;;;;;;;;;;;;;;;16.42;64.67;99151.56;5093434;28;878;-56
2023/03/08 10:10:22;;;;;;;;;;;;;;;16.84;63.49;99114.84;5423851;22;1697;-56
2023/03/08 10:13:07;;;;;;;;;;;;;;;17.07;63.71;99121.06;5092250;28;1226;-56
2023/03/08 10:15:38;;;;;;;;;;;;;;;17.31;60.64;99105.25;5074830;28;1584;-56
2023/03/08 10:18:26;;;;;;;;;;;;;;;17.44;60.71;99104.34;5092392;28;863;-56
2023/03/08 10:20:53;;;;;;;;;;;;;;;17.50;57.84;99106.03;5078529;28;1224;-56
2023/03/08 10:23:20;;;;;;;;;;;;;;;17.71;57.09;99106.31;5074012;28;1941;-56
2023/03/08 10:25:48;;;;;;;;;;;;;;;17.84;58.03;99103.38;5092188;28;851;-56
2023/03/08 10:28:16;;;;;;;;;;;;;;;17.89;55.93;99097.91;5092191;28;819;-56
2023/03/08 10:30:46;;;;;;;;;;;;;;;17.78;57.32;99088.47;5091639;28;1089;-56
2023/03/08 10:33:20;;;;;;;;;;;;;;;17.57;57.55;99082.59;5092078;28;905;-56
2023/03/08 10:35:56;;;;;;;;;;;;;;;17.76;59.13;99083.31;5092064;28;823;-56
2023/03/08 10:38:23;;;;;;;;;;;;;;;18.10;54.48;99084.97;5091926;28;874;-56
2023/03/08 10:40:57;;;;;;;;;;;;;;;18.05;52.81;99082.81;5091924;28;847;-56
2023/03/08 10:43:26;;;;;;;;;;;;;;;18.05;53.15;99080.03;5091892;28;1914;-56
2023/03/08 10:46:04;;;;;;;;;;;;;;;18.28;53.23;99074.94;5091865;28;847;-56
2023/03/08 10:48:31;;;;;;;;;;;;;;;18.67;49.96;99072.25;5091847;28;816;-56
2023/03/08 10:50:58;;;;;;;;;;;;;;;18.47;45.85;99075.63;5091807;28;847;-57
2023/03/08 10:53:28;;;;;;;;;;;;;;;18.33;46.88;99075.09;5091844;28;906;-56
2023/03/08 10:55:55;;;;;;;;;;;;;;;18.27;49.21;99068.59;5091794;28;831;-56
2023/03/08 10:58:33;;;;;;;;;;;;;;;18.26;48.77;99063.44;5091732;28;867;-56
2023/03/08 11:01:04;;;;;;;;;;;;;;;18.42;50.17;99067.91;5091612;28;909;-56
2023/03/08 11:03:31;;;;;;;;;;;;;;;18.36;49.23;99065.72;5091887;28;1885;-56
2023/03/08 11:06:03;;;;;;;;;;;;;;;18.67;50.09;99061.06;5073793;28;1488;-56
2023/03/08 11:08:31;;;;;;;;;;;;;;;18.86;48.70;99062.53;5091635;28;925;-56
2023/03/08 11:11:03;;;;;;;;;;;;;;;18.45;49.40;99056.50;5069892;28;1280;-56
2023/03/08 11:13:32;;;;;;;;;;;;;;;18.60;49.76;99055.81;5071421;28;831;-56
2023/03/08 11:16:07;;;;;;;;;;;;;;;18.92;49.45;99046.59;5070019;28;1163;-56
2023/03/08 11:18:54;;;;;;;;;;;;;;;18.97;45.97;99043.16;5071549;28;863;-56
2023/03/08 11:21:24;;;;;;;;;;;;;;;19.02;47.81;99044.50;5060874;28;1105;-56
2023/03/08 11:24:00;;;;;;;;;;;;;;;19.38;47.38;99048.25;5071273;28;1922;-57
2023/03/08 11:26:33;;;;;;;;;;;;;;;19.64;45.40;99044.88;5071324;28;835;-56
2023/03/08 11:29:15;;;;;;;;;;;;;;;19.49;46.29;99044.88;5071505;28;808;-56
2023/03/08 11:31:48;;;;;;;;;;;;;;;19.39;44.77;99032.97;5071161;28;815;-56
2023/03/08 11:34:37;;;;;;;;;;;;;;;19.74;44.16;99041.53;5071188;28;870;-56
2023/03/08 11:37:18;;;;;;;;;;;;;;;19.83;44.21;99037.84;5071031;28;1057;-56
2023/03/08 11:40:00;;;;;;;;;;;;;;;19.97;43.38;99033.47;5071295;28;811;-56
2023/03/08 11:42:44;;;;;;;;;;;;;;;19.79;43.13;99038.03;5072452;28;863;-56
2023/03/08 11:45:19;;;;;;;;;;;;;;;19.80;42.49;99041.63;5075381;28;1898;-56
2023/03/08 11:48:04;;;;;;;;;;;;;;;19.95;42.01;99033.19;5075046;28;914;-56
2023/03/08 11:50:33;;;;;;;;;;;;;;;20.27;42.21;99037.00;5074903;28;863;-56
2023/03/08 11:53:02;;;;;;;;;;;;;;;20.24;42.23;99035.16;5074883;28;824;-57
2023/03/08 11:55:29;;;;;;;;;;;;;;;20.14;41.87;99028.91;5074769;28;815;-56
2023/03/08 11:58:03;;;;;;;;;;;;;;;20.39;41.03;99027.47;5074744;28;870;-56
2023/03/08 12:00:33;;;;;;;;;;;;;;;20.69;40.41;99015.38;5074707;28;816;-56
2023/03/08 12:03:03;;;;;;;;;;;;;;;20.77;40.42;99011.66;5075289;28;869;-56
2023/03/08 12:05:34;;;;;;;;;;;;;;;20.67;38.70;99018.66;5074578;28;1897;-56
2023/03/08 12:08:04;;;;;;;;;;;;;;;20.59;37.10;99001.50;5074503;28;984;-57
2023/03/08 12:10:37;;;;;;;;;;;;;;;20.64;37.47;99002.81;5087573;28;1293;-56
2023/03/08 12:13:15;;;;;;;;;;;;;;;20.43;35.66;99013.22;5094800;28;863;-57
2023/03/08 12:15:50;;;;;;;;;;;;;;;20.47;35.15;99010.22;5094886;28;871;-56
2023/03/08 12:18:16;;;;;;;;;;;;;;;20.58;36.37;99010.41;5094623;28;889;-56
2023/03/08 12:20:43;;;;;;;;;;;;;;;20.58;37.75;99010.41;5094945;28;882;-57
2023/03/08 12:23:15;;;;;;;;;;;;;;;20.53;35.26;99020.25;5094820;28;893;-56
2023/03/08 12:25:44;;;;;;;;;;;;;;;20.44;35.08;99016.81;5094432;28;1978;-57
2023/03/08 12:28:23;;;;;;;;;;;;;;;20.27;33.32;99013.75;5094417;28;910;-57
2023/03/08 12:30:59;;;;;;;;;;;;;;;20.45;34.95;99023.97;5094478;28;819;-56
2023/03/08 12:33:27;;;;;;;;;;;;;;;20.52;34.70;99023.56;5094361;28;822;-56
2023/03/08 12:35:55;;;;;;;;;;;;;;;20.57;33.51;99020.06;5076543;28;2327;-56
2023/03/08 12:38:22;;;;;;;;;;;;;;;21.03;35.08;99005.31;5094425;28;863;-57
2023/03/08 12:40:50;;;;;;;;;;;;;;;21.21;33.75;99009.88;5094451;28;912;-57
2023/03/08 12:43:19;;;;;;;;;;;;;;;21.05;33.72;99016.81;5094487;28;867;-57
2023/03/08 12:45:47;;;;;;;;;;;;;;;20.73;34.22;99013.13;5093999;28;1940;-57
2023/03/08 12:48:16;;;;;;;;;;;;;;;20.45;34.48;99016.31;5094340;28;879;-57
2023/03/08 12:50:55;;;;;;;;;;;;;;;20.44;33.89;99012.00;5094015;28;890;-56
2023/03/08 12:53:21;;;;;;;;;;;;;;;19.86;35.26;99014.44;5093591;28;874;-56
2023/03/08 12:55:58;;;;;;;;;;;;;;;19.48;36.38;99012.50;5093884;28;879;-56
2023/03/08 12:58:30;;;;;;;;;;;;;;;19.75;35.94;99008.66;5093909;28;870;-56
2023/03/08 13:00:58;;;;;;;;;;;;;;;20.26;35.43;99015.03;5094019;28;835;-56
2023/03/08 13:03:26;;;;;;;;;;;;;;;20.38;35.79;99019.56;5093629;28;1882;-57
2023/03/08 13:05:53;;;;;;;;;;;;;;;20.23;34.75;99018.81;5093677;28;807;-56
2023/03/08 13:08:23;;;;;;;;;;;;;;;20.09;35.92;99007.13;5093774;28;1030;-57
2023/03/08 13:10:49;;;;;;;;;;;;;;;20.08;35.68;99014.03;5093294;28;1306;-57
2023/03/08 13:13:22;;;;;;;;;;;;;;;20.24;33.30;99011.94;5093564;28;831;-56
2023/03/08 13:15:48;;;;;;;;;;;;;;;20.11;33.14;99015.84;5093958;28;831;-56
2023/03/08 13:18:17;;;;;;;;;;;;;;;19.94;35.08;99015.59;5075446;28;1190;-56
2023/03/08 13:20:59;;;;;;;;;;;;;;;19.86;35.83;99014.44;5093628;28;899;-57
2023/03/08 13:23:37;;;;;;;;;;;;;;;19.87;35.74;99007.59;5093386;28;1913;-57
2023/03/08 13:26:13;;;;;;;;;;;;;;;19.97;35.21;99009.03;5093365;28;835;-56
2023/03/08 13:28:41;;;;;;;;;;;;;;;19.87;35.11;99001.97;5093309;28;851;-56
2023/03/08 13:31:10;;;;;;;;;;;;;;;19.64;34.02;99008.44;5093219;28;804;-56
2023/03/08 13:33:38;;;;;;;;;;;;;;;19.51;33.56;99008.75;5093166;28;831;-57
2023/03/08 13:36:06;;;;;;;;;;;;;;;19.37;33.74;99004.66;5093338;28;886;-56
2023/03/08 13:38:36;;;;;;;;;;;;;;;19.21;34.47;99007.94;5091957;28;1362;-56
2023/03/08 13:41:03;;;;;;;;;;;;;;;19.11;35.11;99007.25;5093037;28;866;-56
2023/03/08 13:43:31;;;;;;;;;;;;;;;19.09;34.79;99010.53;5092943;28;1955;-56
2023/03/08 13:46:14;;;;;;;;;;;;;;;19.45;34.62;99002.25;5093177;28;820;-56
2023/03/08 13:48:42;;;;;;;;;;;;;;;19.86;34.05;99010.88;5093045;28;815;-57
2023/03/08 13:51:15;;;;;;;;;;;;;;;19.99;33.75;99008.50;5093833;28;823;-57
2023/03/08 13:53:42;;;;;;;;;;;;;;;19.82;33.32;99008.25;5092838;28;807;-56